This is the latest recevied weather packets stored in our database for station/object IU5GBO-13. If no packets are shown the sender has not sent any weather packets the latest 10 day(s).
| Time | Temp. | Humidity | Pressure | Rain* | Wind** | Luminosity | Snow |
|---|---|---|---|---|---|---|---|
| 1777449372 | 21.67° C | 30% | 1016.8 hPa | - | - | - | - |
| 1777448771 | 20.56° C | 31% | 1016.7 hPa | - | - | - | - |
| 1777448172 | 20° C | 31% | 1016.7 hPa | - | - | - | - |
| 1777447571 | 19.44° C | 32% | 1016.6 hPa | - | - | - | - |
| 1777446972 | 19.44° C | 32% | 1016.7 hPa | - | - | - | - |
| 1777446374 | 17.78° C | 34% | 1016.8 hPa | - | - | - | - |
| 1777445772 | 17.78° C | 35% | 1016.7 hPa | - | - | - | - |
| 1777445172 | 17.22° C | 40% | 1016.7 hPa | - | - | - | - |
| 1777444572 | 16.11° C | 43% | 1016.6 hPa | - | - | - | - |
| 1777443971 | 14.44° C | 49% | 1016.6 hPa | - | - | - | - |
| 1777443372 | 13.33° C | 57% | 1016.7 hPa | - | - | - | - |
| 1777442771 | 12.22° C | 58% | 1016.7 hPa | - | - | - | - |
| 1777442171 | 11.11° C | 62% | 1016.8 hPa | - | - | - | - |
| 1777441571 | 10° C | 64% | 1016.8 hPa | - | - | - | - |
| 1777440972 | 9.44° C | 66% | 1016.7 hPa | - | - | - | - |
| 1777440371 | 8.89° C | 66% | 1016.7 hPa | - | - | - | - |
| 1777439772 | 8.33° C | 67% | 1016.9 hPa | - | - | - | - |
| 1777439172 | 8.33° C | 66% | 1016.9 hPa | - | - | - | - |
| 1777438571 | 8.33° C | 67% | 1016.7 hPa | - | - | - | - |
| 1777437972 | 7.78° C | 68% | 1016.7 hPa | - | - | - | - |
| 1777437371 | 7.78° C | 67% | 1016.6 hPa | - | - | - | - |
| 1777436772 | 7.78° C | 65% | 1016.7 hPa | - | - | - | - |
| 1777436172 | 7.78° C | 65% | 1016.6 hPa | - | - | - | - |
| 1777435571 | 8.33° C | 64% | 1016.7 hPa | - | - | - | - |
| 1777434972 | 7.78° C | 66% | 1016.6 hPa | - | - | - | - |
* Rain since midnight (hover to see other rain measurements)
** Current wind speed in m/s (hover to see current wind gust speed)